sensor_id;sensor_type;location;lat;lon;timestamp;P1;durP1;ratioP1;P2;durP2;ratioP2
4889;SDS011;2459;42.268;23.112;2022-09-02T00:01:52;21.93;;;11.87;;
4889;SDS011;2459;42.268;23.112;2022-09-02T00:04:20;22.90;;;13.67;;
4889;SDS011;2459;42.268;23.112;2022-09-02T00:06:47;19.83;;;13.63;;
4889;SDS011;2459;42.268;23.112;2022-09-02T00:09:14;18.17;;;12.53;;
4889;SDS011;2459;42.268;23.112;2022-09-02T00:11:42;30.80;;;14.60;;
4889;SDS011;2459;42.268;23.112;2022-09-02T00:14:10;25.93;;;14.07;;
4889;SDS011;2459;42.268;23.112;2022-09-02T00:16:38;32.33;;;15.17;;
4889;SDS011;2459;42.268;23.112;2022-09-02T00:19:05;28.63;;;16.30;;
4889;SDS011;2459;42.268;23.112;2022-09-02T00:21:32;20.47;;;14.47;;
4889;SDS011;2459;42.268;23.112;2022-09-02T00:23:59;22.40;;;14.73;;
4889;SDS011;2459;42.268;23.112;2022-09-02T00:26:26;30.00;;;13.43;;
4889;SDS011;2459;42.268;23.112;2022-09-02T00:28:53;22.67;;;14.87;;
4889;SDS011;2459;42.268;23.112;2022-09-02T00:31:21;20.40;;;16.63;;
4889;SDS011;2459;42.268;23.112;2022-09-02T00:33:47;30.60;;;16.07;;
4889;SDS011;2459;42.268;23.112;2022-09-02T00:36:15;18.40;;;15.10;;
4889;SDS011;2459;42.268;23.112;2022-09-02T00:38:42;38.57;;;19.07;;
4889;SDS011;2459;42.268;23.112;2022-09-02T00:41:09;20.30;;;14.70;;
4889;SDS011;2459;42.268;23.112;2022-09-02T00:43:38;18.90;;;12.33;;
4889;SDS011;2459;42.268;23.112;2022-09-02T00:46:05;12.93;;;11.00;;
4889;SDS011;2459;42.268;23.112;2022-09-02T00:48:32;17.50;;;11.07;;
4889;SDS011;2459;42.268;23.112;2022-09-02T00:50:59;16.10;;;11.00;;
4889;SDS011;2459;42.268;23.112;2022-09-02T00:53:27;13.27;;;9.83;;
4889;SDS011;2459;42.268;23.112;2022-09-02T00:55:54;15.27;;;10.30;;
4889;SDS011;2459;42.268;23.112;2022-09-02T00:58:22;10.30;;;8.93;;
4889;SDS011;2459;42.268;23.112;2022-09-02T01:00:50;17.93;;;7.57;;
4889;SDS011;2459;42.268;23.112;2022-09-02T01:03:20;8.73;;;7.70;;
4889;SDS011;2459;42.268;23.112;2022-09-02T01:05:49;9.77;;;7.77;;
4889;SDS011;2459;42.268;23.112;2022-09-02T01:08:19;11.03;;;7.40;;
4889;SDS011;2459;42.268;23.112;2022-09-02T01:10:47;9.80;;;8.00;;
4889;SDS011;2459;42.268;23.112;2022-09-02T01:13:14;13.97;;;6.70;;
4889;SDS011;2459;42.268;23.112;2022-09-02T01:15:43;6.97;;;6.03;;
4889;SDS011;2459;42.268;23.112;2022-09-02T01:18:12;7.67;;;6.87;;
4889;SDS011;2459;42.268;23.112;2022-09-02T01:20:39;11.80;;;7.30;;
4889;SDS011;2459;42.268;23.112;2022-09-02T01:23:07;7.27;;;6.37;;
4889;SDS011;2459;42.268;23.112;2022-09-02T01:25:34;10.30;;;7.07;;
4889;SDS011;2459;42.268;23.112;2022-09-02T01:28:02;8.53;;;6.30;;
4889;SDS011;2459;42.268;23.112;2022-09-02T01:30:29;10.33;;;7.10;;
4889;SDS011;2459;42.268;23.112;2022-09-02T01:32:56;9.10;;;6.40;;
4889;SDS011;2459;42.268;23.112;2022-09-02T01:35:23;33.47;;;5.97;;
4889;SDS011;2459;42.268;23.112;2022-09-02T01:37:52;14.57;;;6.40;;
4889;SDS011;2459;42.268;23.112;2022-09-02T01:40:20;13.40;;;6.60;;
4889;SDS011;2459;42.268;23.112;2022-09-02T01:42:47;8.50;;;5.40;;
4889;SDS011;2459;42.268;23.112;2022-09-02T01:45:18;8.20;;;5.87;;
4889;SDS011;2459;42.268;23.112;2022-09-02T01:47:45;4.90;;;4.43;;
4889;SDS011;2459;42.268;23.112;2022-09-02T01:50:11;5.10;;;4.60;;
4889;SDS011;2459;42.268;23.112;2022-09-02T01:52:38;8.53;;;4.70;;
4889;SDS011;2459;42.268;23.112;2022-09-02T01:55:04;5.13;;;4.63;;
4889;SDS011;2459;42.268;23.112;2022-09-02T01:57:32;9.03;;;5.80;;
4889;SDS011;2459;42.268;23.112;2022-09-02T01:59:59;12.60;;;5.63;;
4889;SDS011;2459;42.268;23.112;2022-09-02T02:02:28;7.63;;;5.50;;
4889;SDS011;2459;42.268;23.112;2022-09-02T02:04:55;6.57;;;5.97;;
4889;SDS011;2459;42.268;23.112;2022-09-02T02:07:21;8.20;;;6.80;;
4889;SDS011;2459;42.268;23.112;2022-09-02T02:09:49;8.43;;;7.57;;
4889;SDS011;2459;42.268;23.112;2022-09-02T02:12:16;12.63;;;6.73;;
4889;SDS011;2459;42.268;23.112;2022-09-02T02:14:44;10.90;;;7.40;;
4889;SDS011;2459;42.268;23.112;2022-09-02T02:17:10;17.43;;;7.87;;
4889;SDS011;2459;42.268;23.112;2022-09-02T02:19:37;13.27;;;9.27;;
4889;SDS011;2459;42.268;23.112;2022-09-02T02:22:03;13.83;;;8.87;;
4889;SDS011;2459;42.268;23.112;2022-09-02T02:24:30;18.20;;;8.23;;
4889;SDS011;2459;42.268;23.112;2022-09-02T02:26:56;11.43;;;8.30;;
4889;SDS011;2459;42.268;23.112;2022-09-02T02:29:23;16.30;;;6.80;;
4889;SDS011;2459;42.268;23.112;2022-09-02T02:31:51;7.10;;;6.03;;
4889;SDS011;2459;42.268;23.112;2022-09-02T02:34:17;8.20;;;6.13;;
4889;SDS011;2459;42.268;23.112;2022-09-02T02:36:44;5.87;;;5.37;;
4889;SDS011;2459;42.268;23.112;2022-09-02T02:39:11;24.63;;;6.73;;
4889;SDS011;2459;42.268;23.112;2022-09-02T02:41:38;6.63;;;5.70;;
4889;SDS011;2459;42.268;23.112;2022-09-02T02:44:05;6.23;;;5.50;;
4889;SDS011;2459;42.268;23.112;2022-09-02T02:46:32;9.07;;;7.57;;
4889;SDS011;2459;42.268;23.112;2022-09-02T02:49:01;8.63;;;6.53;;
4889;SDS011;2459;42.268;23.112;2022-09-02T02:51:27;7.83;;;6.33;;
4889;SDS011;2459;42.268;23.112;2022-09-02T02:53:54;10.63;;;6.73;;
4889;SDS011;2459;42.268;23.112;2022-09-02T02:56:20;12.43;;;7.23;;
4889;SDS011;2459;42.268;23.112;2022-09-02T02:58:47;7.90;;;7.10;;
4889;SDS011;2459;42.268;23.112;2022-09-02T03:01:13;8.10;;;6.53;;
4889;SDS011;2459;42.268;23.112;2022-09-02T03:03:39;8.47;;;7.30;;
4889;SDS011;2459;42.268;23.112;2022-09-02T03:06:08;7.20;;;6.10;;
4889;SDS011;2459;42.268;23.112;2022-09-02T03:08:35;7.90;;;6.87;;
4889;SDS011;2459;42.268;23.112;2022-09-02T03:11:02;10.97;;;8.00;;
4889;SDS011;2459;42.268;23.112;2022-09-02T03:13:31;10.97;;;7.97;;
4889;SDS011;2459;42.268;23.112;2022-09-02T03:15:57;14.70;;;7.83;;
4889;SDS011;2459;42.268;23.112;2022-09-02T03:18:24;11.10;;;7.47;;
4889;SDS011;2459;42.268;23.112;2022-09-02T03:20:50;11.87;;;8.37;;
4889;SDS011;2459;42.268;23.112;2022-09-02T03:23:18;10.80;;;8.70;;
4889;SDS011;2459;42.268;23.112;2022-09-02T03:25:45;16.43;;;9.13;;
4889;SDS011;2459;42.268;23.112;2022-09-02T03:28:12;14.17;;;8.00;;
4889;SDS011;2459;42.268;23.112;2022-09-02T03:30:38;11.00;;;8.10;;
4889;SDS011;2459;42.268;23.112;2022-09-02T03:33:05;14.53;;;7.60;;
4889;SDS011;2459;42.268;23.112;2022-09-02T03:35:32;13.70;;;8.90;;
4889;SDS011;2459;42.268;23.112;2022-09-02T03:37:59;17.60;;;7.23;;
4889;SDS011;2459;42.268;23.112;2022-09-02T03:40:28;13.20;;;9.83;;
4889;SDS011;2459;42.268;23.112;2022-09-02T03:42:54;11.37;;;7.87;;
4889;SDS011;2459;42.268;23.112;2022-09-02T03:45:21;14.70;;;9.47;;
4889;SDS011;2459;42.268;23.112;2022-09-02T03:47:48;11.60;;;8.50;;
4889;SDS011;2459;42.268;23.112;2022-09-02T03:50:18;11.57;;;8.93;;
4889;SDS011;2459;42.268;23.112;2022-09-02T03:52:45;11.00;;;9.53;;
4889;SDS011;2459;42.268;23.112;2022-09-02T03:55:11;16.27;;;9.77;;
4889;SDS011;2459;42.268;23.112;2022-09-02T03:57:39;16.53;;;10.57;;
4889;SDS011;2459;42.268;23.112;2022-09-02T04:00:07;15.97;;;10.97;;
4889;SDS011;2459;42.268;23.112;2022-09-02T04:02:34;17.33;;;11.50;;
4889;SDS011;2459;42.268;23.112;2022-09-02T04:05:00;20.10;;;13.00;;
4889;SDS011;2459;42.268;23.112;2022-09-02T04:07:27;29.13;;;12.87;;
4889;SDS011;2459;42.268;23.112;2022-09-02T04:09:53;15.07;;;11.00;;
4889;SDS011;2459;42.268;23.112;2022-09-02T04:12:20;11.97;;;10.20;;
4889;SDS011;2459;42.268;23.112;2022-09-02T04:14:48;13.40;;;9.97;;
4889;SDS011;2459;42.268;23.112;2022-09-02T04:17:14;13.80;;;9.87;;
4889;SDS011;2459;42.268;23.112;2022-09-02T04:19:41;14.03;;;10.20;;
4889;SDS011;2459;42.268;23.112;2022-09-02T04:22:07;21.40;;;11.27;;
4889;SDS011;2459;42.268;23.112;2022-09-02T04:24:34;14.50;;;10.40;;
4889;SDS011;2459;42.268;23.112;2022-09-02T04:27:00;17.50;;;12.30;;
4889;SDS011;2459;42.268;23.112;2022-09-02T04:29:27;13.73;;;10.80;;
4889;SDS011;2459;42.268;23.112;2022-09-02T04:31:57;11.93;;;10.30;;
4889;SDS011;2459;42.268;23.112;2022-09-02T04:34:23;17.83;;;10.90;;
4889;SDS011;2459;42.268;23.112;2022-09-02T04:36:49;13.67;;;10.17;;
4889;SDS011;2459;42.268;23.112;2022-09-02T04:39:17;20.43;;;11.73;;
4889;SDS011;2459;42.268;23.112;2022-09-02T04:41:43;10.63;;;9.53;;
4889;SDS011;2459;42.268;23.112;2022-09-02T04:44:10;14.20;;;8.07;;
4889;SDS011;2459;42.268;23.112;2022-09-02T04:46:36;8.60;;;7.70;;
4889;SDS011;2459;42.268;23.112;2022-09-02T04:49:04;8.20;;;6.90;;
4889;SDS011;2459;42.268;23.112;2022-09-02T04:51:31;12.03;;;7.90;;
4889;SDS011;2459;42.268;23.112;2022-09-02T04:53:57;7.17;;;6.00;;
4889;SDS011;2459;42.268;23.112;2022-09-02T04:56:25;16.97;;;8.93;;
4889;SDS011;2459;42.268;23.112;2022-09-02T04:58:52;7.60;;;6.30;;
4889;SDS011;2459;42.268;23.112;2022-09-02T05:01:19;10.30;;;7.70;;
4889;SDS011;2459;42.268;23.112;2022-09-02T05:03:48;8.47;;;7.27;;
4889;SDS011;2459;42.268;23.112;2022-09-02T05:06:18;9.43;;;8.43;;
4889;SDS011;2459;42.268;23.112;2022-09-02T05:08:44;18.50;;;9.37;;
4889;SDS011;2459;42.268;23.112;2022-09-02T05:11:13;12.23;;;7.83;;
4889;SDS011;2459;42.268;23.112;2022-09-02T05:13:42;16.53;;;8.43;;
4889;SDS011;2459;42.268;23.112;2022-09-02T05:16:08;13.50;;;8.70;;
4889;SDS011;2459;42.268;23.112;2022-09-02T05:18:35;12.80;;;8.47;;
4889;SDS011;2459;42.268;23.112;2022-09-02T05:21:03;11.47;;;8.30;;
4889;SDS011;2459;42.268;23.112;2022-09-02T05:23:31;9.73;;;8.70;;
4889;SDS011;2459;42.268;23.112;2022-09-02T05:25:58;14.17;;;9.90;;
4889;SDS011;2459;42.268;23.112;2022-09-02T05:28:27;16.20;;;11.17;;
4889;SDS011;2459;42.268;23.112;2022-09-02T05:30:54;14.93;;;9.60;;
4889;SDS011;2459;42.268;23.112;2022-09-02T05:33:20;27.73;;;11.10;;
4889;SDS011;2459;42.268;23.112;2022-09-02T05:35:47;19.17;;;10.83;;
4889;SDS011;2459;42.268;23.112;2022-09-02T05:38:17;14.10;;;11.30;;
4889;SDS011;2459;42.268;23.112;2022-09-02T05:40:45;25.50;;;13.20;;
4889;SDS011;2459;42.268;23.112;2022-09-02T05:43:12;19.17;;;13.60;;
4889;SDS011;2459;42.268;23.112;2022-09-02T05:45:38;23.00;;;13.20;;
4889;SDS011;2459;42.268;23.112;2022-09-02T05:48:05;18.57;;;13.07;;
4889;SDS011;2459;42.268;23.112;2022-09-02T05:50:53;16.93;;;13.43;;
4889;SDS011;2459;42.268;23.112;2022-09-02T05:53:19;17.90;;;12.50;;
4889;SDS011;2459;42.268;23.112;2022-09-02T05:55:47;16.77;;;13.00;;
4889;SDS011;2459;42.268;23.112;2022-09-02T05:58:14;13.67;;;11.20;;
4889;SDS011;2459;42.268;23.112;2022-09-02T06:00:40;16.63;;;12.20;;
4889;SDS011;2459;42.268;23.112;2022-09-02T06:03:07;15.03;;;11.90;;
4889;SDS011;2459;42.268;23.112;2022-09-02T06:05:33;17.07;;;10.93;;
4889;SDS011;2459;42.268;23.112;2022-09-02T06:08:01;16.77;;;11.87;;
4889;SDS011;2459;42.268;23.112;2022-09-02T06:10:28;22.90;;;10.33;;
4889;SDS011;2459;42.268;23.112;2022-09-02T06:12:56;14.80;;;11.20;;
4889;SDS011;2459;42.268;23.112;2022-09-02T06:15:22;16.50;;;10.20;;
4889;SDS011;2459;42.268;23.112;2022-09-02T06:17:51;15.37;;;11.47;;
4889;SDS011;2459;42.268;23.112;2022-09-02T06:20:18;24.57;;;11.53;;
4889;SDS011;2459;42.268;23.112;2022-09-02T06:22:44;18.80;;;11.83;;
4889;SDS011;2459;42.268;23.112;2022-09-02T06:25:12;23.33;;;10.37;;
4889;SDS011;2459;42.268;23.112;2022-09-02T06:27:39;16.60;;;11.03;;
4889;SDS011;2459;42.268;23.112;2022-09-02T06:30:08;21.43;;;12.27;;
4889;SDS011;2459;42.268;23.112;2022-09-02T06:32:35;14.40;;;10.00;;
4889;SDS011;2459;42.268;23.112;2022-09-02T06:35:01;14.43;;;12.40;;
4889;SDS011;2459;42.268;23.112;2022-09-02T06:37:28;15.10;;;12.47;;
4889;SDS011;2459;42.268;23.112;2022-09-02T06:39:54;20.30;;;12.90;;
4889;SDS011;2459;42.268;23.112;2022-09-02T06:42:20;20.27;;;11.60;;
4889;SDS011;2459;42.268;23.112;2022-09-02T06:44:47;16.33;;;10.40;;
4889;SDS011;2459;42.268;23.112;2022-09-02T06:47:15;13.03;;;9.90;;
4889;SDS011;2459;42.268;23.112;2022-09-02T06:49:42;17.37;;;10.90;;
4889;SDS011;2459;42.268;23.112;2022-09-02T06:52:11;13.70;;;10.90;;
4889;SDS011;2459;42.268;23.112;2022-09-02T06:54:38;14.80;;;9.90;;
4889;SDS011;2459;42.268;23.112;2022-09-02T06:57:04;19.57;;;11.13;;
4889;SDS011;2459;42.268;23.112;2022-09-02T06:59:31;15.43;;;9.70;;
4889;SDS011;2459;42.268;23.112;2022-09-02T07:01:58;22.93;;;10.50;;
4889;SDS011;2459;42.268;23.112;2022-09-02T07:04:26;15.50;;;10.67;;
4889;SDS011;2459;42.268;23.112;2022-09-02T07:07:11;14.23;;;10.37;;
4889;SDS011;2459;42.268;23.112;2022-09-02T07:09:38;12.87;;;9.53;;
4889;SDS011;2459;42.268;23.112;2022-09-02T07:12:05;23.07;;;8.83;;
4889;SDS011;2459;42.268;23.112;2022-09-02T07:14:35;13.30;;;9.43;;
4889;SDS011;2459;42.268;23.112;2022-09-02T07:17:02;9.20;;;8.17;;
4889;SDS011;2459;42.268;23.112;2022-09-02T07:19:30;12.50;;;8.53;;
4889;SDS011;2459;42.268;23.112;2022-09-02T07:21:56;17.30;;;9.30;;
4889;SDS011;2459;42.268;23.112;2022-09-02T07:24:23;14.63;;;8.87;;
4889;SDS011;2459;42.268;23.112;2022-09-02T07:26:49;14.83;;;8.50;;
4889;SDS011;2459;42.268;23.112;2022-09-02T07:29:16;13.67;;;7.13;;
4889;SDS011;2459;42.268;23.112;2022-09-02T07:31:43;9.10;;;7.20;;
4889;SDS011;2459;42.268;23.112;2022-09-02T07:34:10;18.97;;;7.53;;
4889;SDS011;2459;42.268;23.112;2022-09-02T07:36:40;13.80;;;7.60;;
4889;SDS011;2459;42.268;23.112;2022-09-02T07:39:07;12.97;;;8.07;;
4889;SDS011;2459;42.268;23.112;2022-09-02T07:41:35;9.00;;;6.57;;
4889;SDS011;2459;42.268;23.112;2022-09-02T07:44:02;15.20;;;8.13;;
4889;SDS011;2459;42.268;23.112;2022-09-02T07:46:28;15.47;;;6.87;;
4889;SDS011;2459;42.268;23.112;2022-09-02T07:48:57;13.47;;;8.97;;
4889;SDS011;2459;42.268;23.112;2022-09-02T07:51:24;16.23;;;7.97;;
4889;SDS011;2459;42.268;23.112;2022-09-02T07:53:52;12.87;;;7.40;;
4889;SDS011;2459;42.268;23.112;2022-09-02T07:56:19;12.50;;;5.50;;
4889;SDS011;2459;42.268;23.112;2022-09-02T07:58:45;8.10;;;7.10;;
4889;SDS011;2459;42.268;23.112;2022-09-02T08:01:12;23.50;;;6.47;;
4889;SDS011;2459;42.268;23.112;2022-09-02T08:03:39;13.00;;;6.10;;
4889;SDS011;2459;42.268;23.112;2022-09-02T08:06:09;6.50;;;4.83;;
4889;SDS011;2459;42.268;23.112;2022-09-02T08:08:35;13.87;;;6.00;;
4889;SDS011;2459;42.268;23.112;2022-09-02T08:11:04;18.10;;;6.83;;
4889;SDS011;2459;42.268;23.112;2022-09-02T08:13:30;24.23;;;7.40;;
4889;SDS011;2459;42.268;23.112;2022-09-02T08:15:57;17.73;;;7.00;;
4889;SDS011;2459;42.268;23.112;2022-09-02T08:18:24;10.53;;;6.03;;
4889;SDS011;2459;42.268;23.112;2022-09-02T08:20:51;14.23;;;6.73;;
4889;SDS011;2459;42.268;23.112;2022-09-02T08:23:17;15.03;;;7.10;;
4889;SDS011;2459;42.268;23.112;2022-09-02T08:25:44;16.60;;;7.03;;
4889;SDS011;2459;42.268;23.112;2022-09-02T08:28:12;18.10;;;6.13;;
4889;SDS011;2459;42.268;23.112;2022-09-02T08:30:38;5.10;;;4.60;;
4889;SDS011;2459;42.268;23.112;2022-09-02T08:33:05;9.00;;;6.40;;
4889;SDS011;2459;42.268;23.112;2022-09-02T08:35:31;9.97;;;5.77;;
4889;SDS011;2459;42.268;23.112;2022-09-02T08:37:58;23.93;;;6.10;;
4889;SDS011;2459;42.268;23.112;2022-09-02T08:40:27;43.50;;;6.30;;
4889;SDS011;2459;42.268;23.112;2022-09-02T08:42:58;20.02;;;5.95;;
4889;SDS011;2459;42.268;23.112;2022-09-02T08:45:29;5.00;;;4.50;;
4889;SDS011;2459;42.268;23.112;2022-09-02T08:48:01;7.35;;;5.47;;
4889;SDS011;2459;42.268;23.112;2022-09-02T08:50:29;11.57;;;6.75;;
4889;SDS011;2459;42.268;23.112;2022-09-02T08:52:58;18.23;;;6.22;;
4889;SDS011;2459;42.268;23.112;2022-09-02T08:55:28;11.20;;;4.93;;
4889;SDS011;2459;42.268;23.112;2022-09-02T08:57:55;13.95;;;4.80;;
4889;SDS011;2459;42.268;23.112;2022-09-02T09:00:22;9.30;;;4.82;;
4889;SDS011;2459;42.268;23.112;2022-09-02T09:02:52;10.38;;;5.75;;
4889;SDS011;2459;42.268;23.112;2022-09-02T09:05:23;20.60;;;6.18;;
4889;SDS011;2459;42.268;23.112;2022-09-02T09:07:58;10.18;;;5.72;;
4889;SDS011;2459;42.268;23.112;2022-09-02T09:10:30;6.97;;;6.00;;
4889;SDS011;2459;42.268;23.112;2022-09-02T09:13:05;10.50;;;6.15;;
4889;SDS011;2459;42.268;23.112;2022-09-02T09:15:39;7.43;;;5.18;;
4889;SDS011;2459;42.268;23.112;2022-09-02T09:18:10;9.57;;;5.13;;
4889;SDS011;2459;42.268;23.112;2022-09-02T09:20:40;10.40;;;6.35;;
4889;SDS011;2459;42.268;23.112;2022-09-02T09:23:08;12.93;;;6.47;;
4889;SDS011;2459;42.268;23.112;2022-09-02T09:25:38;9.70;;;6.22;;
4889;SDS011;2459;42.268;23.112;2022-09-02T09:28:04;7.72;;;5.30;;
4889;SDS011;2459;42.268;23.112;2022-09-02T09:30:31;12.98;;;5.75;;
4889;SDS011;2459;42.268;23.112;2022-09-02T09:32:58;6.28;;;5.32;;
4889;SDS011;2459;42.268;23.112;2022-09-02T09:35:27;13.10;;;6.63;;
4889;SDS011;2459;42.268;23.112;2022-09-02T09:37:54;5.50;;;4.82;;
4889;SDS011;2459;42.268;23.112;2022-09-02T09:40:24;10.40;;;5.13;;
4889;SDS011;2459;42.268;23.112;2022-09-02T09:42:53;14.35;;;5.57;;
4889;SDS011;2459;42.268;23.112;2022-09-02T09:45:24;8.52;;;7.05;;
4889;SDS011;2459;42.268;23.112;2022-09-02T09:50:38;16.45;;;6.85;;
4889;SDS011;2459;42.268;23.112;2022-09-02T09:53:14;8.23;;;5.75;;
4889;SDS011;2459;42.268;23.112;2022-09-02T09:55:48;12.70;;;8.15;;
4889;SDS011;2459;42.268;23.112;2022-09-02T09:58:15;12.80;;;8.20;;
4889;SDS011;2459;42.268;23.112;2022-09-02T10:00:42;6.60;;;5.72;;
4889;SDS011;2459;42.268;23.112;2022-09-02T10:03:09;6.82;;;6.10;;
4889;SDS011;2459;42.268;23.112;2022-09-02T10:05:45;9.75;;;6.63;;
4889;SDS011;2459;42.268;23.112;2022-09-02T10:08:18;14.63;;;7.82;;
4889;SDS011;2459;42.268;23.112;2022-09-02T10:10:53;14.80;;;5.97;;
4889;SDS011;2459;42.268;23.112;2022-09-02T10:13:22;6.93;;;6.22;;
4889;SDS011;2459;42.268;23.112;2022-09-02T10:15:53;6.45;;;5.80;;
4889;SDS011;2459;42.268;23.112;2022-09-02T10:18:25;27.65;;;5.60;;
4889;SDS011;2459;42.268;23.112;2022-09-02T10:20:56;5.32;;;4.90;;
4889;SDS011;2459;42.268;23.112;2022-09-02T10:26:19;6.47;;;5.90;;
4889;SDS011;2459;42.268;23.112;2022-09-02T10:29:13;6.82;;;4.93;;
4889;SDS011;2459;42.268;23.112;2022-09-02T10:31:49;5.22;;;4.90;;
4889;SDS011;2459;42.268;23.112;2022-09-02T10:34:20;8.27;;;5.95;;
4889;SDS011;2459;42.268;23.112;2022-09-02T10:36:58;8.80;;;5.82;;
4889;SDS011;2459;42.268;23.112;2022-09-02T10:39:31;19.70;;;5.35;;
4889;SDS011;2459;42.268;23.112;2022-09-02T10:42:06;6.55;;;4.40;;
4889;SDS011;2459;42.268;23.112;2022-09-02T10:44:38;5.90;;;4.93;;
4889;SDS011;2459;42.268;23.112;2022-09-02T10:47:14;7.47;;;5.80;;
4889;SDS011;2459;42.268;23.112;2022-09-02T10:49:52;7.07;;;5.45;;
4889;SDS011;2459;42.268;23.112;2022-09-02T10:52:26;5.38;;;4.88;;
4889;SDS011;2459;42.268;23.112;2022-09-02T10:54:55;5.10;;;4.70;;
4889;SDS011;2459;42.268;23.112;2022-09-02T10:57:25;5.03;;;4.10;;
4889;SDS011;2459;42.268;23.112;2022-09-02T10:59:56;7.25;;;4.70;;
4889;SDS011;2459;42.268;23.112;2022-09-02T11:02:26;14.38;;;5.55;;
4889;SDS011;2459;42.268;23.112;2022-09-02T11:04:54;13.05;;;6.05;;
4889;SDS011;2459;42.268;23.112;2022-09-02T11:07:26;7.38;;;5.97;;
4889;SDS011;2459;42.268;23.112;2022-09-02T11:09:54;6.95;;;6.35;;
4889;SDS011;2459;42.268;23.112;2022-09-02T11:12:24;7.00;;;6.47;;
4889;SDS011;2459;42.268;23.112;2022-09-02T11:14:55;7.80;;;6.25;;
4889;SDS011;2459;42.268;23.112;2022-09-02T11:17:26;8.13;;;6.70;;
4889;SDS011;2459;42.268;23.112;2022-09-02T11:19:58;12.93;;;7.18;;
4889;SDS011;2459;42.268;23.112;2022-09-02T11:22:33;9.68;;;8.20;;
4889;SDS011;2459;42.268;23.112;2022-09-02T11:25:04;23.85;;;7.90;;
4889;SDS011;2459;42.268;23.112;2022-09-02T11:27:35;10.60;;;9.20;;
4889;SDS011;2459;42.268;23.112;2022-09-02T11:30:03;9.35;;;8.40;;
4889;SDS011;2459;42.268;23.112;2022-09-02T11:32:33;11.48;;;8.65;;
4889;SDS011;2459;42.268;23.112;2022-09-02T11:35:02;12.75;;;11.55;;
4889;SDS011;2459;42.268;23.112;2022-09-02T11:37:32;15.07;;;11.68;;
4889;SDS011;2459;42.268;23.112;2022-09-02T11:40:00;16.23;;;11.90;;
4889;SDS011;2459;42.268;23.112;2022-09-02T11:42:31;14.02;;;10.60;;
4889;SDS011;2459;42.268;23.112;2022-09-02T11:47:52;28.92;;;11.38;;
4889;SDS011;2459;42.268;23.112;2022-09-02T11:50:23;23.30;;;10.73;;
4889;SDS011;2459;42.268;23.112;2022-09-02T11:52:57;10.90;;;9.57;;
4889;SDS011;2459;42.268;23.112;2022-09-02T11:55:28;9.20;;;8.10;;
4889;SDS011;2459;42.268;23.112;2022-09-02T11:57:56;9.05;;;7.88;;
4889;SDS011;2459;42.268;23.112;2022-09-02T12:00:25;44.90;;;10.23;;
4889;SDS011;2459;42.268;23.112;2022-09-02T12:02:55;10.60;;;9.50;;
4889;SDS011;2459;42.268;23.112;2022-09-02T12:05:43;12.03;;;9.07;;
4889;SDS011;2459;42.268;23.112;2022-09-02T12:08:11;13.20;;;9.07;;
4889;SDS011;2459;42.268;23.112;2022-09-02T12:10:58;18.87;;;8.83;;
4889;SDS011;2459;42.268;23.112;2022-09-02T12:13:33;12.20;;;8.27;;
4889;SDS011;2459;42.268;23.112;2022-09-02T12:19:15;10.63;;;8.67;;
4889;SDS011;2459;42.268;23.112;2022-09-02T12:21:35;12.60;;;8.87;;
4889;SDS011;2459;42.268;23.112;2022-09-02T12:24:14;25.40;;;8.63;;
4889;SDS011;2459;42.268;23.112;2022-09-02T12:29:30;8.50;;;6.77;;
4889;SDS011;2459;42.268;23.112;2022-09-02T12:31:56;8.30;;;7.50;;
4889;SDS011;2459;42.268;23.112;2022-09-02T12:37:15;17.20;;;7.47;;
4889;SDS011;2459;42.268;23.112;2022-09-02T12:40:00;15.90;;;9.00;;
4889;SDS011;2459;42.268;23.112;2022-09-02T12:42:35;9.37;;;7.53;;
4889;SDS011;2459;42.268;23.112;2022-09-02T12:45:08;21.63;;;8.50;;
4889;SDS011;2459;42.268;23.112;2022-09-02T12:47:46;8.20;;;6.53;;
4889;SDS011;2459;42.268;23.112;2022-09-02T12:50:18;16.43;;;7.40;;
4889;SDS011;2459;42.268;23.112;2022-09-02T12:52:47;13.77;;;7.80;;
4889;SDS011;2459;42.268;23.112;2022-09-02T12:55:17;12.27;;;7.40;;
4889;SDS011;2459;42.268;23.112;2022-09-02T12:57:44;16.47;;;7.93;;
4889;SDS011;2459;42.268;23.112;2022-09-02T13:00:12;16.47;;;12.03;;
4889;SDS011;2459;42.268;23.112;2022-09-02T13:02:43;8.80;;;7.90;;
4889;SDS011;2459;42.268;23.112;2022-09-02T13:05:13;19.73;;;8.23;;
4889;SDS011;2459;42.268;23.112;2022-09-02T13:11:13;9.47;;;8.40;;
4889;SDS011;2459;42.268;23.112;2022-09-02T13:13:49;11.20;;;9.00;;
4889;SDS011;2459;42.268;23.112;2022-09-02T13:16:21;32.20;;;10.50;;
4889;SDS011;2459;42.268;23.112;2022-09-02T13:25:08;11.63;;;10.33;;
4889;SDS011;2459;42.268;23.112;2022-09-02T13:27:52;15.07;;;7.50;;
4889;SDS011;2459;42.268;23.112;2022-09-02T13:30:24;18.43;;;9.37;;
4889;SDS011;2459;42.268;23.112;2022-09-02T13:32:54;13.77;;;7.10;;
4889;SDS011;2459;42.268;23.112;2022-09-02T13:35:23;13.30;;;8.10;;
4889;SDS011;2459;42.268;23.112;2022-09-02T13:37:54;25.63;;;7.37;;
4889;SDS011;2459;42.268;23.112;2022-09-02T13:40:25;12.53;;;9.00;;
4889;SDS011;2459;42.268;23.112;2022-09-02T13:42:54;12.70;;;8.40;;
4889;SDS011;2459;42.268;23.112;2022-09-02T13:45:21;13.27;;;7.77;;
4889;SDS011;2459;42.268;23.112;2022-09-02T13:47:49;11.90;;;7.30;;
4889;SDS011;2459;42.268;23.112;2022-09-02T13:50:16;13.00;;;9.33;;
4889;SDS011;2459;42.268;23.112;2022-09-02T13:52:44;13.07;;;7.50;;
4889;SDS011;2459;42.268;23.112;2022-09-02T13:55:11;11.20;;;8.10;;
4889;SDS011;2459;42.268;23.112;2022-09-02T13:57:41;18.13;;;10.93;;
4889;SDS011;2459;42.268;23.112;2022-09-02T14:00:11;10.60;;;7.03;;
4889;SDS011;2459;42.268;23.112;2022-09-02T14:02:38;12.77;;;6.50;;
4889;SDS011;2459;42.268;23.112;2022-09-02T14:05:05;14.30;;;7.90;;
4889;SDS011;2459;42.268;23.112;2022-09-02T14:07:34;16.37;;;8.90;;
4889;SDS011;2459;42.268;23.112;2022-09-02T14:10:03;11.80;;;8.70;;
4889;SDS011;2459;42.268;23.112;2022-09-02T14:12:31;18.73;;;9.50;;
4889;SDS011;2459;42.268;23.112;2022-09-02T14:14:58;14.00;;;8.70;;
4889;SDS011;2459;42.268;23.112;2022-09-02T14:17:27;17.57;;;8.90;;
4889;SDS011;2459;42.268;23.112;2022-09-02T14:20:06;11.57;;;8.20;;
4889;SDS011;2459;42.268;23.112;2022-09-02T14:22:33;13.83;;;8.73;;
4889;SDS011;2459;42.268;23.112;2022-09-02T14:25:06;8.77;;;7.43;;
4889;SDS011;2459;42.268;23.112;2022-09-02T14:27:33;14.37;;;8.23;;
4889;SDS011;2459;42.268;23.112;2022-09-02T14:29:59;8.83;;;7.53;;
4889;SDS011;2459;42.268;23.112;2022-09-02T14:32:29;11.17;;;8.53;;
4889;SDS011;2459;42.268;23.112;2022-09-02T14:35:09;14.83;;;8.83;;
4889;SDS011;2459;42.268;23.112;2022-09-02T14:37:46;11.27;;;9.60;;
4889;SDS011;2459;42.268;23.112;2022-09-02T14:40:13;14.80;;;9.70;;
4889;SDS011;2459;42.268;23.112;2022-09-02T14:42:44;16.67;;;7.77;;
4889;SDS011;2459;42.268;23.112;2022-09-02T14:45:11;15.80;;;8.10;;
4889;SDS011;2459;42.268;23.112;2022-09-02T14:47:39;9.93;;;7.57;;
4889;SDS011;2459;42.268;23.112;2022-09-02T14:50:08;10.07;;;6.03;;
4889;SDS011;2459;42.268;23.112;2022-09-02T14:52:35;13.43;;;7.83;;
4889;SDS011;2459;42.268;23.112;2022-09-02T14:55:03;22.93;;;7.90;;
4889;SDS011;2459;42.268;23.112;2022-09-02T14:57:31;25.07;;;9.10;;
4889;SDS011;2459;42.268;23.112;2022-09-02T14:59:58;16.70;;;9.97;;
4889;SDS011;2459;42.268;23.112;2022-09-02T15:02:28;29.83;;;10.50;;
4889;SDS011;2459;42.268;23.112;2022-09-02T15:04:58;18.03;;;9.33;;
4889;SDS011;2459;42.268;23.112;2022-09-02T15:07:24;23.00;;;10.07;;
4889;SDS011;2459;42.268;23.112;2022-09-02T15:09:51;20.23;;;9.13;;
4889;SDS011;2459;42.268;23.112;2022-09-02T15:12:18;14.07;;;10.57;;
4889;SDS011;2459;42.268;23.112;2022-09-02T15:14:48;14.20;;;7.40;;
4889;SDS011;2459;42.268;23.112;2022-09-02T15:17:15;36.53;;;10.03;;
4889;SDS011;2459;42.268;23.112;2022-09-02T15:19:42;21.33;;;8.60;;
4889;SDS011;2459;42.268;23.112;2022-09-02T15:22:10;33.73;;;8.30;;
4889;SDS011;2459;42.268;23.112;2022-09-02T15:24:36;22.60;;;8.77;;